Terminal Aerodrome Forecast
Issued by NWS

Home | Current Version | Previous Version | Text Only | Print | Product List | Glossary On
Versions: 1 2 3 4 5 6 7 8 9 10 11 12 13 14
000
FTUS42 KTBW 261727
TAFPIE
TAF
KPIE 261727Z 2618/2718 14007KT P6SM SCT035 SCT150
     FM262000 25007KT P6SM VCTS SCT040CB BKN150
     FM270100 VRB04KT P6SM FEW150
     FM271400 12005KT P6SM FEW035 SCT250=

USA.gov is the U.S. government's official web portal to all federal, state and local government web resources and services.